createdAt,value
2023-04-02T00:00:14.545Z,95416.81
2023-04-02T00:02:57.794Z,95416.47
2023-04-02T00:05:50.520Z,95413.97
2023-04-02T00:08:38.913Z,95418.72
2023-04-02T00:11:08.947Z,95426.78
2023-04-02T00:13:41.157Z,95423.28
2023-04-02T00:16:18.136Z,95416.97
2023-04-02T00:18:51.045Z,95423.44
2023-04-02T00:21:23.180Z,95418.22
2023-04-02T00:23:55.446Z,95423.28
2023-04-02T00:26:29.844Z,95419.00
2023-04-02T00:28:57.683Z,95422.50
2023-04-02T00:31:27.144Z,95425.69
2023-04-02T00:33:55.818Z,95434.22
2023-04-02T00:36:26.590Z,95428.38
2023-04-02T00:39:00.159Z,95435.78
2023-04-02T00:41:31.636Z,95436.44
2023-04-02T00:44:00.959Z,95430.91
2023-04-02T00:46:34.670Z,95422.19
2023-04-02T00:49:08.017Z,95432.19
2023-04-02T00:51:39.895Z,95419.00
2023-04-02T00:54:15.603Z,95422.34
2023-04-02T00:56:46.173Z,95418.22
2023-04-02T00:59:23.586Z,95414.13
2023-04-02T01:01:55.207Z,95421.06
2023-04-02T01:04:36.358Z,95428.69
2023-04-02T01:07:08.693Z,95426.63
2023-04-02T01:09:53.273Z,95424.72
2023-04-02T01:12:36.495Z,95428.69
2023-04-02T01:15:12.320Z,95429.31
2023-04-02T01:17:54.560Z,95436.91
2023-04-02T01:20:44.600Z,95433.75
2023-04-02T01:23:17.454Z,95442.59
2023-04-02T01:25:53.369Z,95440.06
2023-04-02T01:28:27.233Z,95441.81
2023-04-02T01:30:58.296Z,95442.78
2023-04-02T01:33:31.290Z,95442.16
2023-04-02T01:36:10.042Z,95442.94
2023-04-02T01:38:46.205Z,95446.75
2023-04-02T01:41:21.978Z,95449.44
2023-04-02T01:43:58.472Z,95444.97
2023-04-02T01:46:30.181Z,95459.72
2023-04-02T01:49:01.522Z,95467.16
2023-04-02T01:51:31.626Z,95460.81
2023-04-02T01:54:02.916Z,95457.16
2023-04-02T01:56:31.492Z,95466.53
2023-04-02T01:59:00.489Z,95463.50
2023-04-02T02:01:36.711Z,95468.09
2023-04-02T02:04:04.617Z,95455.91
2023-04-02T02:06:32.809Z,95470.78
2023-04-02T02:09:04.547Z,95477.13
2023-04-02T02:11:36.404Z,95476.81
2023-04-02T02:14:11.974Z,95481.22
2023-04-02T02:16:42.647Z,95481.72
2023-04-02T02:19:22.791Z,95486.13
2023-04-02T02:21:54.185Z,95495.31
2023-04-02T02:24:24.781Z,95500.84
2023-04-02T02:27:03.164Z,95497.22
2023-04-02T02:29:36.194Z,95506.88
2023-04-02T02:32:08.445Z,95510.53
2023-04-02T02:34:42.625Z,95508.59
2023-04-02T02:37:16.021Z,95508.25
2023-04-02T02:39:46.186Z,95511.91
2023-04-02T02:42:19.669Z,95504.59
2023-04-02T02:44:50.921Z,95513.03
2023-04-02T02:47:24.539Z,95511.09
2023-04-02T02:49:56.244Z,95507.94
2023-04-02T02:52:28.572Z,95512.34
2023-04-02T02:55:18.729Z,95520.28
2023-04-02T02:58:13.883Z,95512.81
2023-04-02T03:00:55.086Z,95521.53
2023-04-02T03:03:28.526Z,95516.16
2023-04-02T03:06:04.066Z,95522.50
2023-04-02T03:08:37.228Z,95518.84
2023-04-02T03:11:11.399Z,95526.28
2023-04-02T03:13:47.277Z,95515.97
2023-04-02T03:16:22.393Z,95519.31
2023-04-02T03:18:55.416Z,95528.03
2023-04-02T03:21:29.634Z,95527.53
2023-04-02T03:24:00.951Z,95530.22
2023-04-02T03:26:33.876Z,95528.63
2023-04-02T03:29:09.408Z,95535.00
2023-04-02T03:31:42.622Z,95538.78
2023-04-02T03:34:18.548Z,95541.94
2023-04-02T03:36:53.454Z,95545.56
2023-04-02T03:39:26.213Z,95553.50
2023-04-02T03:41:59.278Z,95558.06
2023-04-02T03:44:32.831Z,95553.00
2023-04-02T03:47:11.685Z,95559.78
2023-04-02T03:49:47.752Z,95557.25
2023-04-02T03:52:23.922Z,95553.00
2023-04-02T03:54:53.728Z,95572.09
2023-04-02T03:57:28.028Z,95555.03
2023-04-02T04:00:04.796Z,95566.06
2023-04-02T04:02:47.266Z,95564.69
2023-04-02T04:05:25.283Z,95556.91
2023-04-02T04:08:00.480Z,95566.53
2023-04-02T04:10:30.371Z,95567.28
2023-04-02T04:13:04.840Z,95573.09
2023-04-02T04:15:38.255Z,95583.69
2023-04-02T04:18:13.116Z,95574.28
2023-04-02T04:20:56.257Z,95579.34
2023-04-02T04:23:31.887Z,95584.22
2023-04-02T04:26:09.790Z,95593.66
2023-04-02T04:28:45.267Z,95588.88
2023-04-02T04:31:20.798Z,95593.41
2023-04-02T04:33:55.896Z,95602.09
2023-04-02T04:36:31.249Z,95617.69
2023-04-02T04:39:14.491Z,95610.75
2023-04-02T04:41:48.645Z,95617.16
2023-04-02T04:44:23.164Z,95618.25
2023-04-02T04:46:59.585Z,95622.03
2023-04-02T04:49:32.263Z,95619.16
2023-04-02T04:52:10.026Z,95632.72
2023-04-02T04:54:40.153Z,95629.75
2023-04-02T04:57:26.813Z,95637.78
2023-04-02T04:59:59.607Z,95643.19
2023-04-02T05:02:34.349Z,95647.28
2023-04-02T05:05:04.994Z,95647.69
2023-04-02T05:07:47.001Z,95648.88
2023-04-02T05:10:24.646Z,95649.38
2023-04-02T05:12:57.714Z,95657.53
2023-04-02T05:15:31.255Z,95658.81
2023-04-02T05:18:17.568Z,95665.47
2023-04-02T05:20:51.322Z,95663.41
2023-04-02T05:23:27.087Z,95671.72
2023-04-02T05:26:04.490Z,95669.34
2023-04-02T05:28:39.786Z,95668.66
2023-04-02T05:31:13.475Z,95669.34
2023-04-02T05:33:48.268Z,95669.44
2023-04-02T05:36:21.741Z,95679.16
2023-04-02T05:38:56.378Z,95681.94
2023-04-02T05:41:38.685Z,95684.97
2023-04-02T05:44:11.607Z,95686.63
2023-04-02T05:46:47.388Z,95684.03
2023-04-02T05:49:22.692Z,95689.47
2023-04-02T05:51:57.535Z,95699.19
2023-04-02T05:54:31.433Z,95694.56
2023-04-02T05:57:05.345Z,95702.03
2023-04-02T05:59:39.240Z,95705.56
2023-04-02T06:02:18.740Z,95705.78
2023-04-02T06:04:54.589Z,95716.81
2023-04-02T06:07:32.141Z,95710.94
2023-04-02T06:10:09.685Z,95716.19
2023-04-02T06:12:44.375Z,95720.00
2023-04-02T06:15:15.544Z,95726.56
2023-04-02T06:17:48.867Z,95724.28
2023-04-02T06:20:19.060Z,95727.56
2023-04-02T06:22:51.017Z,95737.78
2023-04-02T06:25:25.587Z,95738.91
2023-04-02T06:27:58.053Z,95737.22
2023-04-02T06:30:29.540Z,95748.69
2023-04-02T06:32:58.429Z,95749.59
2023-04-02T06:35:28.223Z,95758.47
2023-04-02T06:38:04.641Z,95757.13
2023-04-02T06:40:42.818Z,95763.19
2023-04-02T06:43:26.375Z,95762.41
2023-04-02T06:46:24.146Z,95774.50
2023-04-02T06:49:17.656Z,95780.09
2023-04-02T06:51:49.135Z,95782.53
2023-04-02T06:54:18.877Z,95789.44
2023-04-02T06:56:53.367Z,95792.06
2023-04-02T06:59:37.488Z,95794.91
2023-04-02T07:02:24.162Z,95799.09
2023-04-02T07:04:52.631Z,95803.88
2023-04-02T07:07:21.560Z,95803.44
2023-04-02T07:09:51.358Z,95800.41
2023-04-02T07:12:24.668Z,95801.56
2023-04-02T07:14:53.170Z,95801.56
2023-04-02T07:17:22.233Z,95807.44
2023-04-02T07:19:50.628Z,95801.56
2023-04-02T07:22:21.442Z,95805.88
2023-04-02T07:24:53.373Z,95808.34
2023-04-02T07:27:22.580Z,95806.34
2023-04-02T07:29:50.545Z,95810.16
2023-04-02T07:32:19.475Z,95813.03
2023-04-02T07:34:47.434Z,95818.91
2023-04-02T07:37:15.666Z,95817.16
2023-04-02T07:39:43.573Z,95819.22
2023-04-02T07:42:11.395Z,95827.16
2023-04-02T07:44:41.171Z,95823.34
2023-04-02T07:47:10.557Z,95827.63
2023-04-02T07:49:38.419Z,95831.75
2023-04-02T07:52:06.783Z,95837.25
2023-04-02T07:54:35.838Z,95832.19
2023-04-02T07:57:03.805Z,95822.75
2023-04-02T07:59:31.601Z,95828.41
2023-04-02T08:02:01.036Z,95833.84
2023-04-02T08:04:28.825Z,95839.00
2023-04-02T08:06:56.634Z,95837.06
2023-04-02T08:09:24.474Z,95836.88
2023-04-02T08:11:52.332Z,95846.19
2023-04-02T08:14:20.160Z,95849.75
2023-04-02T08:16:49.614Z,95845.78
2023-04-02T08:19:19.103Z,95842.16
2023-04-02T08:21:49.923Z,95866.34
2023-04-02T08:24:19.086Z,95856.88
2023-04-02T08:26:47.448Z,95847.69
2023-04-02T08:29:15.312Z,95862.34
2023-04-02T08:31:43.141Z,95861.09
2023-04-02T08:34:11.176Z,95862.25
2023-04-02T08:36:42.874Z,95870.47
2023-04-02T08:39:12.023Z,95870.41
2023-04-02T08:41:45.219Z,95878.59
2023-04-02T08:44:24.819Z,95872.34
2023-04-02T08:46:56.940Z,95877.56
2023-04-02T08:49:32.126Z,95885.03
2023-04-02T08:52:01.776Z,95883.47
2023-04-02T08:54:31.660Z,95889.09
2023-04-02T08:57:04.091Z,95887.25
2023-04-02T08:59:34.613Z,95905.38
2023-04-02T09:02:33.069Z,95899.03
2023-04-02T09:05:05.670Z,95906.44
2023-04-02T09:07:35.997Z,95906.66
2023-04-02T09:10:04.353Z,95909.41
2023-04-02T09:12:33.254Z,95913.56
2023-04-02T09:15:12.609Z,95908.16
2023-04-02T09:17:53.097Z,95919.47
2023-04-02T09:20:26.071Z,95916.34
2023-04-02T09:22:57.022Z,95926.47
2023-04-02T09:25:27.892Z,95921.22
2023-04-02T09:27:58.437Z,95927.31
2023-04-02T09:30:40.130Z,95934.53
2023-04-02T09:33:09.260Z,95930.06
2023-04-02T09:35:39.014Z,95945.13
2023-04-02T09:38:23.361Z,95942.13
2023-04-02T09:40:59.518Z,95941.63
2023-04-02T09:43:29.097Z,95942.91
2023-04-02T09:45:59.843Z,95940.09
2023-04-02T09:48:31.285Z,95949.22
2023-04-02T09:51:14.225Z,95952.53
2023-04-02T09:53:45.984Z,95947.63
2023-04-02T09:56:19.877Z,95945.94
2023-04-02T09:59:03.763Z,95957.00
2023-04-02T10:01:33.771Z,95963.66
2023-04-02T10:04:03.957Z,95960.53
2023-04-02T10:06:33.756Z,95968.78
2023-04-02T10:09:21.271Z,95967.28
2023-04-02T10:11:50.862Z,95968.06
2023-04-02T10:14:22.712Z,95959.53
2023-04-02T10:16:53.338Z,95965.03
2023-04-02T10:19:28.604Z,95970.25
2023-04-02T10:21:57.687Z,95981.38
2023-04-02T10:24:29.728Z,95980.06
2023-04-02T10:27:09.766Z,95978.69
2023-04-02T10:29:51.986Z,95976.06
2023-04-02T10:32:22.576Z,95984.13
2023-04-02T10:34:59.312Z,95982.28
2023-04-02T10:38:03.786Z,95973.41
2023-04-02T10:40:37.628Z,95985.66
2023-04-02T10:43:35.623Z,95981.06
2023-04-02T10:46:10.459Z,95987.97
2023-04-02T10:48:47.409Z,95983.44
2023-04-02T10:51:29.458Z,95992.97
2023-04-02T10:54:03.708Z,95996.47
2023-04-02T10:56:44.161Z,95992.50
2023-04-02T10:59:20.818Z,95999.53
2023-04-02T11:01:51.510Z,96005.44
2023-04-02T11:04:23.612Z,96004.84
2023-04-02T11:07:07.044Z,96008.09
2023-04-02T11:09:43.871Z,96004.47
2023-04-02T11:12:22.716Z,96001.88
2023-04-02T11:14:53.104Z,95999.91
2023-04-02T11:17:21.884Z,95998.03
2023-04-02T11:19:49.860Z,95996.56
2023-04-02T11:22:22.158Z,96007.22
2023-04-02T11:24:51.242Z,96003.47
2023-04-02T11:27:28.013Z,95999.56
2023-04-02T11:30:04.808Z,96004.66
2023-04-02T11:32:36.493Z,96006.09
2023-04-02T11:35:27.472Z,96016.22
2023-04-02T11:37:56.399Z,96019.13
2023-04-02T11:40:49.685Z,96021.38
2023-04-02T11:43:51.110Z,96025.66
2023-04-02T11:46:52.481Z,96029.91
2023-04-02T11:50:11.138Z,96015.53
2023-04-02T11:52:53.272Z,96025.44
2023-04-02T11:55:27.959Z,96034.31
2023-04-02T11:58:11.737Z,96029.59
2023-04-02T12:01:14.781Z,96023.97
2023-04-02T12:04:03.363Z,96034.59
2023-04-02T12:06:46.841Z,96034.34
2023-04-02T12:09:22.366Z,96032.66
2023-04-02T12:11:52.167Z,96035.06
2023-04-02T12:14:48.180Z,96033.72
2023-04-02T12:17:22.357Z,96042.50
2023-04-02T12:19:55.328Z,96031.91
2023-04-02T12:22:26.050Z,96032.75
2023-04-02T12:24:57.254Z,96030.44
2023-04-02T12:27:27.879Z,96037.53
2023-04-02T12:29:56.396Z,96033.25
2023-04-02T12:32:30.637Z,96026.19
2023-04-02T12:35:28.124Z,96021.00
2023-04-02T12:37:57.118Z,96028.88
2023-04-02T12:40:33.308Z,96034.59
2023-04-02T12:43:01.287Z,96031.84
2023-04-02T12:45:35.178Z,96034.31
2023-04-02T12:48:08.081Z,96038.66
2023-04-02T12:50:37.758Z,96037.13
2023-04-02T12:53:19.910Z,96047.31
2023-04-02T12:55:48.382Z,96048.09
2023-04-02T12:58:28.923Z,96063.94
2023-04-02T13:01:11.514Z,96057.91
2023-04-02T13:03:39.407Z,96057.59
2023-04-02T13:06:22.879Z,96065.69
2023-04-02T13:08:51.529Z,96054.06
2023-04-02T13:11:19.529Z,96049.78
2023-04-02T13:13:49.541Z,96053.53
2023-04-02T13:16:30.004Z,96043.13
2023-04-02T13:19:21.576Z,96042.59
2023-04-02T13:21:52.506Z,96043.53
2023-04-02T13:24:21.758Z,96059.91
2023-04-02T13:26:50.289Z,96059.16
2023-04-02T13:29:22.127Z,96058.72
2023-04-02T13:31:50.414Z,96073.81
2023-04-02T13:34:18.890Z,96067.19
2023-04-02T13:36:47.333Z,96072.28
2023-04-02T13:39:16.568Z,96077.88
2023-04-02T13:41:45.938Z,96068.53
2023-04-02T13:44:21.125Z,96069.00
2023-04-02T13:46:49.157Z,96081.13
2023-04-02T13:49:17.305Z,96080.31
2023-04-02T13:51:47.491Z,96077.94
2023-04-02T13:54:26.024Z,96074.13
2023-04-02T13:56:55.908Z,96082.91
2023-04-02T13:59:23.886Z,96081.63
2023-04-02T14:01:54.829Z,96079.41
2023-04-02T14:04:27.361Z,96079.72
2023-04-02T14:07:26.980Z,96085.28
2023-04-02T14:10:11.132Z,96076.84
2023-04-02T14:12:58.367Z,96082.59
2023-04-02T14:15:55.116Z,96087.31
2023-04-02T14:18:41.280Z,96083.66
2023-04-02T14:21:18.914Z,96100.06
2023-04-02T14:24:01.850Z,96114.53
2023-04-02T14:26:39.585Z,96120.13
2023-04-02T14:29:16.826Z,96130.75
2023-04-02T14:31:47.964Z,96133.88
2023-04-02T14:34:23.136Z,96126.16
2023-04-02T14:37:01.103Z,96123.59
2023-04-02T14:39:40.090Z,96117.06
2023-04-02T14:42:15.633Z,96128.16
2023-04-02T14:44:50.042Z,96124.97
2023-04-02T14:47:23.459Z,96131.50
2023-04-02T14:49:56.040Z,96132.91
2023-04-02T14:52:27.919Z,96132.91
2023-04-02T14:55:00.171Z,96132.31
2023-04-02T14:57:32.425Z,96137.38
2023-04-02T15:00:04.216Z,96138.69
2023-04-02T15:02:41.972Z,96144.69
2023-04-02T15:05:17.472Z,96145.81
2023-04-02T15:07:50.865Z,96148.38
2023-04-02T15:10:25.904Z,96155.84
2023-04-02T15:12:57.045Z,96157.44
2023-04-02T15:15:39.901Z,96166.66
2023-04-02T15:18:12.418Z,96164.41
2023-04-02T15:20:48.526Z,96166.81
2023-04-02T15:23:24.406Z,96167.22
2023-04-02T15:26:01.648Z,96175.50
2023-04-02T15:28:38.884Z,96170.47
2023-04-02T15:31:13.078Z,96173.84
2023-04-02T15:33:46.484Z,96173.66
2023-04-02T15:36:42.587Z,96184.09
2023-04-02T15:39:30.135Z,96186.19
2023-04-02T15:42:06.015Z,96183.81
2023-04-02T15:44:37.541Z,96180.59
2023-04-02T15:47:15.383Z,96185.72
2023-04-02T15:49:47.679Z,96191.44
2023-04-02T15:52:25.460Z,96191.81
2023-04-02T15:55:11.243Z,96192.78
2023-04-02T15:57:54.754Z,96205.78
2023-04-02T16:00:27.959Z,96200.56
2023-04-02T16:03:18.134Z,96208.66
2023-04-02T16:05:56.141Z,96214.88
2023-04-02T16:08:38.032Z,96211.47
2023-04-02T16:11:11.200Z,96229.44
2023-04-02T16:13:40.577Z,96235.63
2023-04-02T16:16:15.516Z,96231.69
2023-04-02T16:18:51.537Z,96234.47
2023-04-02T16:21:22.550Z,96230.84
2023-04-02T16:23:51.080Z,96236.22
2023-04-02T16:26:32.220Z,96233.53
2023-04-02T16:29:12.917Z,96238.25
2023-04-02T16:31:51.298Z,96245.72
2023-04-02T16:34:34.399Z,96246.22
2023-04-02T16:37:09.284Z,96249.88
2023-04-02T16:39:42.706Z,96252.25
2023-04-02T16:42:21.689Z,96250.66
2023-04-02T16:44:58.844Z,96261.72
2023-04-02T16:47:41.759Z,96275.44
2023-04-02T16:50:20.229Z,96272.72
2023-04-02T16:52:56.861Z,96282.06
2023-04-02T16:55:36.434Z,96280.69
2023-04-02T16:58:21.859Z,96284.44
2023-04-02T17:00:54.342Z,96285.09
2023-04-02T17:04:02.989Z,96290.50
2023-04-02T17:06:40.976Z,96287.41
2023-04-02T17:09:16.229Z,96299.31
2023-04-02T17:11:50.409Z,96293.34
2023-04-02T17:14:35.879Z,96306.72
2023-04-02T17:17:05.500Z,96308.75
2023-04-02T17:19:35.681Z,96307.22
2023-04-02T17:22:06.160Z,96322.44
2023-04-02T17:24:40.069Z,96317.09
2023-04-02T17:27:18.171Z,96318.13
2023-04-02T17:29:52.882Z,96330.78
2023-04-02T17:32:27.277Z,96339.56
2023-04-02T17:34:56.729Z,96339.50
2023-04-02T17:37:33.272Z,96337.97
2023-04-02T17:40:14.941Z,96360.06
2023-04-02T17:42:53.826Z,96360.53
2023-04-02T17:45:27.931Z,96359.66
2023-04-02T17:48:03.056Z,96376.41
2023-04-02T17:50:49.635Z,96376.66
2023-04-02T17:53:29.220Z,96380.56
2023-04-02T17:56:12.018Z,96386.69
2023-04-02T17:59:00.678Z,96393.09
2023-04-02T18:01:34.302Z,96401.47
2023-04-02T18:04:19.787Z,96406.84
2023-04-02T18:07:10.850Z,96410.41
2023-04-02T18:09:45.844Z,96413.09
2023-04-02T18:12:31.389Z,96414.41
2023-04-02T18:15:26.340Z,96416.69
2023-04-02T18:18:01.240Z,96435.28
2023-04-02T18:20:34.120Z,96434.66
2023-04-02T18:23:12.309Z,96440.13
2023-04-02T18:25:52.290Z,96440.66
2023-04-02T18:28:47.306Z,96441.34
2023-04-02T18:31:25.016Z,96450.50
2023-04-02T18:34:13.155Z,96461.28
2023-04-02T18:36:52.525Z,96457.78
2023-04-02T18:39:32.204Z,96463.09
2023-04-02T18:42:10.899Z,96469.59
2023-04-02T18:44:53.620Z,96472.53
2023-04-02T18:47:27.788Z,96482.00
2023-04-02T18:50:11.866Z,96491.13
2023-04-02T18:52:40.718Z,96482.91
2023-04-02T18:55:16.954Z,96490.44
2023-04-02T18:57:49.693Z,96492.38
2023-04-02T19:00:28.539Z,96500.69
2023-04-02T19:03:01.450Z,96498.28
2023-04-02T19:05:41.301Z,96512.25
2023-04-02T19:08:17.617Z,96504.59
2023-04-02T19:10:48.411Z,96513.22
2023-04-02T19:13:18.103Z,96511.03
2023-04-02T19:16:38.865Z,96519.59
2023-04-02T19:19:19.232Z,96527.41
2023-04-02T19:22:02.777Z,96530.78
2023-04-02T19:24:46.703Z,96533.63
2023-04-02T19:27:25.613Z,96535.03
2023-04-02T19:30:04.688Z,96540.47
2023-04-02T19:32:40.062Z,96539.16
2023-04-02T19:35:18.430Z,96538.56
2023-04-02T19:37:57.404Z,96548.31
2023-04-02T19:40:36.365Z,96541.69
2023-04-02T19:43:08.069Z,96549.25
2023-04-02T19:45:39.663Z,96556.56
2023-04-02T19:48:14.949Z,96554.38
2023-04-02T19:50:42.967Z,96564.91
2023-04-02T19:53:11.140Z,96559.03
2023-04-02T19:55:40.949Z,96565.72
2023-04-02T19:58:19.966Z,96572.72
2023-04-02T20:00:47.931Z,96579.69
2023-04-02T20:03:16.754Z,96587.78
2023-04-02T20:05:44.672Z,96585.72
2023-04-02T20:08:12.569Z,96591.69
2023-04-02T20:10:42.793Z,96600.31
2023-04-02T20:13:14.377Z,96600.63
2023-04-02T20:15:43.195Z,96604.41
2023-04-02T20:18:11.596Z,96610.84
2023-04-02T20:20:40.103Z,96614.13
2023-04-02T20:23:08.029Z,96617.88
2023-04-02T20:25:37.117Z,96623.47
2023-04-02T20:28:07.441Z,96631.53
2023-04-02T20:30:39.127Z,96629.69
2023-04-02T20:33:08.416Z,96639.88
2023-04-02T20:35:37.763Z,96643.66
2023-04-02T20:38:07.947Z,96641.25
2023-04-02T20:40:36.015Z,96645.31
2023-04-02T20:43:04.353Z,96655.78
2023-04-02T20:45:32.290Z,96652.03
2023-04-02T20:48:01.986Z,96655.00
2023-04-02T20:50:30.389Z,96670.25
2023-04-02T20:52:59.798Z,96670.81
2023-04-02T20:55:27.840Z,96672.94
2023-04-02T20:57:56.005Z,96684.22
2023-04-02T21:00:27.934Z,96693.88
2023-04-02T21:02:55.980Z,96691.47
2023-04-02T21:05:27.749Z,96695.22
2023-04-02T21:07:55.732Z,96706.78
2023-04-02T21:10:23.591Z,96708.41
2023-04-02T21:12:51.370Z,96707.06
2023-04-02T21:15:19.101Z,96712.13
2023-04-02T21:17:51.958Z,96715.63
2023-04-02T21:20:19.873Z,96716.97
2023-04-02T21:22:49.013Z,96720.47
2023-04-02T21:25:16.769Z,96722.88
2023-04-02T21:27:45.909Z,96724.47
2023-04-02T21:30:14.166Z,96716.69
2023-04-02T21:32:42.457Z,96734.13
2023-04-02T21:35:10.656Z,96733.31
2023-04-02T21:37:38.484Z,96734.91
2023-04-02T21:40:09.653Z,96737.31
2023-04-02T21:42:37.362Z,96736.25
2023-04-02T21:45:05.898Z,96744.53
2023-04-02T21:47:33.744Z,96739.75
2023-04-02T21:50:01.474Z,96747.50
2023-04-02T21:52:29.219Z,96745.09
2023-04-02T21:54:56.945Z,96759.81
2023-04-02T21:57:26.279Z,96768.13
2023-04-02T21:59:56.799Z,96769.16
2023-04-02T22:02:24.646Z,96769.41
2023-04-02T22:04:53.392Z,96775.84
2023-04-02T22:07:21.136Z,96777.69
2023-04-02T22:09:48.919Z,96787.06
2023-04-02T22:12:16.960Z,96782.78
2023-04-02T22:14:46.082Z,96788.94
2023-04-02T22:17:13.891Z,96793.47
2023-04-02T22:19:42.776Z,96797.22
2023-04-02T22:22:10.622Z,96797.22
2023-04-02T22:24:38.776Z,96798.84
2023-04-02T22:27:06.615Z,96810.09
2023-04-02T22:29:34.685Z,96813.28
2023-04-02T22:32:03.870Z,96822.66
2023-04-02T22:34:31.749Z,96818.59
2023-04-02T22:37:00.501Z,96824.22
2023-04-02T22:39:28.352Z,96826.91
2023-04-02T22:41:56.258Z,96815.38
2023-04-02T22:44:24.190Z,96813.25
2023-04-02T22:46:52.203Z,96817.53
2023-04-02T22:49:21.472Z,96819.41
2023-04-02T22:51:49.224Z,96816.13
2023-04-02T22:54:17.223Z,96828.97
2023-04-02T22:56:45.091Z,96822.00
2023-04-02T22:59:12.951Z,96813.19
2023-04-02T23:01:41.038Z,96831.44
2023-04-02T23:04:09.663Z,96837.03
2023-04-02T23:06:38.837Z,96826.03
2023-04-02T23:09:06.640Z,96831.41
2023-04-02T23:11:34.555Z,96834.31
2023-04-02T23:14:02.372Z,96830.84
2023-04-02T23:16:30.621Z,96830.34
2023-04-02T23:18:58.625Z,96834.88
2023-04-02T23:21:27.560Z,96828.16
2023-04-02T23:23:56.895Z,96827.63
2023-04-02T23:26:27.547Z,96834.91
2023-04-02T23:28:55.586Z,96831.94
2023-04-02T23:31:24.372Z,96837.25
2023-04-02T23:33:53.367Z,96829.19
2023-04-02T23:36:23.623Z,96825.69
2023-04-02T23:38:55.115Z,96822.94
2023-04-02T23:41:26.896Z,96824.56
2023-04-02T23:43:55.555Z,96824.03
2023-04-02T23:46:23.838Z,96823.06
2023-04-02T23:48:51.877Z,96819.81
2023-04-02T23:51:19.914Z,96807.78
2023-04-02T23:53:48.366Z,96815.25
2023-04-02T23:56:16.412Z,96812.31
2023-04-02T23:58:46.081Z,96819.56
